Temp: 5.3°C   Baro: 1027.6mb
  Wind: 2.0mph   Dir: W (277°)
  Rain: 0.0mm (0.0mm/hr)
  Humidity: 88%

Historic data

Bath Spa Weather Station Historical Data
Daily Summary for December 02, 2022 Units:  English    Metric   Both
Daily Weekly Monthly Yearly Custom
  High: Low: Average:
Temperature: 41.5 °F 31.6 °F 36.5 °F
Dew Point: 40.5 °F 30.9 °F 35.4 °F
Humidity: 97% 91.8% 96%
Wind Speed: 6.1mph 0mph 1.7mph
Wind Gust: 13mph - -
Wind- - East
Pressure: 30.39 in 30.29 in -
Precipitation: 0.00 in    
Historical Graphs
 
 
Tabular Data for December 02, 2022
Time Temperature Dew Point Pressure Wind Wind Speed Wind Gust Humidity Rainfall Rate (Hourly) solar
00:09 32.6 °F 31.9 °F 30.39 in NE 2.2 mph 4 mph 97% 0.00 in 0 W/m2
00:14 32.5 °F 31.8 °F 30.39 in NNE 2.8 mph 4 mph 97% 0.00 in 0 W/m2
00:19 32.4 °F 31.6 °F 30.39 in NNE 2.1 mph 5 mph 97% 0.00 in 0 W/m2
00:24 32.2 °F 31.5 °F 30.39 in NNE 1.7 mph 4 mph 97% 0.00 in 0 W/m2
00:29 32.2 °F 31.5 °F 30.39 in NNE 1.5 mph 3 mph 97% 0.00 in 0 W/m2
00:34 32.2 °F 31.5 °F 30.38 in NE 1.7 mph 5 mph 97% 0.00 in 0 W/m2
00:39 32.2 °F 31.5 °F 30.38 in NE 2.1 mph 5 mph 97% 0.00 in 0 W/m2
00:44 32 °F 31.3 °F 30.38 in NNE 2 mph 6 mph 97% 0.00 in 0 W/m2
00:49 31.9 °F 31.2 °F 30.38 in NE 1.5 mph 4 mph 97% 0.00 in 0 W/m2
00:54 32 °F 31.3 °F 30.38 in ENE 1.6 mph 4 mph 97% 0.00 in 0 W/m2
00:59 32 °F 31.3 °F 30.38 in ENE 2.1 mph 4 mph 97% 0.00 in 0 W/m2
01:04 32 °F 31.3 °F 30.38 in ENE 2 mph 4 mph 97% 0.00 in 0 W/m2
01:09 32.2 °F 31.5 °F 30.38 in NE 1.9 mph 4 mph 97% 0.00 in 0 W/m2
01:14 32 °F 31.3 °F 30.38 in NE 0.5 mph 4 mph 97% 0.00 in 0 W/m2
01:19 31.9 °F 31.2 °F 30.38 in NE 1.8 mph 4 mph 97% 0.00 in 0 W/m2
01:24 31.8 °F 31.1 °F 30.38 in North 1.2 mph 4 mph 97% 0.00 in 0 W/m2
01:29 31.8 °F 31.1 °F 30.38 in North 0.4 mph 2 mph 97% 0.00 in 0 W/m2
01:34 32 °F 31.3 °F 30.38 in North 0.2 mph 3 mph 97% 0.00 in 0 W/m2
01:39 31.9 °F 31.2 °F 30.38 in North 0.9 mph 3 mph 97% 0.00 in 0 W/m2
01:44 31.7 °F 31 °F 30.38 in North 0.7 mph 3 mph 97% 0.00 in 0 W/m2
01:49 31.8 °F 31.1 °F 30.38 in North 0.8 mph 3 mph 97% 0.00 in 0 W/m2
01:54 31.8 °F 31.1 °F 30.38 in North 0.8 mph 2 mph 97% 0.00 in 0 W/m2
01:59 31.8 °F 31.1 °F 30.38 in Calm   1 mph 97% 0.00 in 0 W/m2
02:04 31.8 °F 31.1 °F 30.38 in North 0.4 mph 2 mph 97% 0.00 in 0 W/m2
02:09 31.7 °F 31 °F 30.37 in North 0.5 mph 2 mph 97% 0.00 in 0 W/m2
02:14 31.6 °F 30.9 °F 30.37 in North 0.2 mph 1 mph 97% 0.00 in 0 W/m2
02:19 31.7 °F 31 °F 30.37 in North 0.2 mph 1 mph 97% 0.00 in 0 W/m2
02:24 32 °F 31.3 °F 30.37 in North 0.2 mph 1 mph 97% 0.00 in 0 W/m2
02:29 32.2 °F 31.5 °F 30.37 in ENE 2 mph 3 mph 97% 0.00 in 0 W/m2
02:34 32.4 °F 31.6 °F 30.37 in ENE 2.7 mph 5 mph 97% 0.00 in 0 W/m2
02:39 32.4 °F 31.6 °F 30.37 in ENE 2 mph 3 mph 97% 0.00 in 0 W/m2
02:44 32.5 °F 31.8 °F 30.37 in ENE 1.3 mph 3 mph 97% 0.00 in 0 W/m2
02:49 32.5 °F 31.8 °F 30.37 in ENE 0.2 mph 2 mph 97% 0.00 in 0 W/m2
02:54 32.6 °F 31.9 °F 30.37 in ENE 1.3 mph 3 mph 97% 0.00 in 0 W/m2
02:59 32.7 °F 32 °F 30.37 in ENE 2.7 mph 5 mph 97% 0.00 in 0 W/m2
03:04 32.6 °F 31.9 °F 30.36 in ESE 2.1 mph 5 mph 97% 0.00 in 0 W/m2
03:09 32.5 °F 31.8 °F 30.36 in ESE 1.6 mph 5 mph 97% 0.00 in 0 W/m2
03:14 32.5 °F 31.8 °F 30.36 in ESE 1.3 mph 4 mph 97% 0.00 in 0 W/m2
03:19 32.5 °F 31.8 °F 30.36 in ESE 0.8 mph 2 mph 97% 0.00 in 0 W/m2
03:24 32.6 °F 31.9 °F 30.36 in ESE 1.2 mph 3 mph 97% 0.00 in 0 W/m2
03:29 32.7 °F 32 °F 30.36 in ESE 1.7 mph 4 mph 97% 0.00 in 0 W/m2
03:34 32.7 °F 32 °F 30.36 in ESE 0.9 mph 3 mph 97% 0.00 in 0 W/m2
03:39 32.7 °F 32 °F 30.35 in ESE 0.7 mph 3 mph 97% 0.00 in 0 W/m2
03:44 32.6 °F 31.9 °F 30.35 in ESE 1.2 mph 2 mph 97% 0.00 in 0 W/m2
03:49 32.5 °F 31.8 °F 30.35 in ESE 0.2 mph 2 mph 97% 0.00 in 0 W/m2
03:53 32.5 °F 31.8 °F 30.35 in ESE 0.5 mph 2 mph 97% 0.00 in 0 W/m2
03:59 32.5 °F 31.8 °F 30.35 in ESE 1.1 mph 3 mph 97% 0.00 in 0 W/m2
04:04 32.4 °F 31.6 °F 30.35 in ESE 1.2 mph 2 mph 97% 0.00 in 0 W/m2
04:09 32.4 °F 31.6 °F 30.35 in ESE 0.9 mph 2 mph 97% 0.00 in 0 W/m2
04:14 32.4 °F 31.6 °F 30.35 in ESE 0.4 mph 2 mph 97% 0.00 in 0 W/m2
04:19 32.4 °F 31.6 °F 30.35 in ESE 0.4 mph 4 mph 97% 0.00 in 0 W/m2
04:24 32.4 °F 31.6 °F 30.35 in ESE 1.1 mph 4 mph 97% 0.00 in 0 W/m2
04:29 32.3 °F 31.5 °F 30.35 in ESE 1 mph 4 mph 97% 0.00 in 0 W/m2
04:34 32.4 °F 31.6 °F 30.35 in ENE 1.9 mph 6 mph 97% 0.00 in 0 W/m2
04:39 32.4 °F 31.6 °F 30.35 in NE 3.8 mph 5 mph 97% 0.00 in 0 W/m2
04:44 32.2 °F 31.5 °F 30.35 in NE 1.8 mph 4 mph 97% 0.00 in 0 W/m2
04:49 32.2 °F 31.5 °F 30.35 in NE 1.7 mph 4 mph 97% 0.00 in 0 W/m2
04:54 32.2 °F 31.5 °F 30.35 in NE 1.6 mph 4 mph 97% 0.00 in 0 W/m2
04:59 32.2 °F 31.5 °F 30.35 in NE 0.9 mph 3 mph 97% 0.00 in 0 W/m2
05:04 32.2 °F 31.5 °F 30.35 in East 1.5 mph 5 mph 97% 0.00 in 0 W/m2
05:09 31.8 °F 31.1 °F 30.35 in ESE 1.6 mph 5 mph 97% 0.00 in 0 W/m2
05:14 31.6 °F 30.9 °F 30.35 in SE 0.4 mph 3 mph 97% 0.00 in 0 W/m2
05:19 31.6 °F 30.9 °F 30.34 in SE 0.4 mph 2 mph 97% 0.00 in 0 W/m2
05:24 31.8 °F 31.1 °F 30.34 in SE 1.1 mph 3 mph 97% 0.00 in 0 W/m2
05:29 31.8 °F 31.1 °F 30.34 in SE 0.4 mph 3 mph 97% 0.00 in 0 W/m2
05:34 32 °F 31.3 °F 30.34 in SE 0.5 mph 2 mph 97% 0.00 in 0 W/m2
05:38 32 °F 31.3 °F 30.34 in SE 0.7 mph 3 mph 97% 0.00 in 0 W/m2
05:44 32.1 °F 31.4 °F 30.34 in SE 1.3 mph 4 mph 97% 0.00 in 0 W/m2
05:49 32.2 °F 31.5 °F 30.34 in SE 1.6 mph 3 mph 97% 0.00 in 0 W/m2
05:54 32.1 °F 31.4 °F 30.34 in SE 0.5 mph 3 mph 97% 0.00 in 0 W/m2
05:59 32.1 °F 31.4 °F 30.34 in SE 0.2 mph 1 mph 97% 0.00 in 0 W/m2
06:04 32 °F 31.3 °F 30.34 in SE 0.5 mph 2 mph 97% 0.00 in 0 W/m2
06:09 31.9 °F 31.2 °F 30.34 in SE 1.1 mph 2 mph 97% 0.00 in 0 W/m2
06:14 31.8 °F 31.1 °F 30.34 in SE 0.8 mph 3 mph 97% 0.00 in 0 W/m2
06:19 31.8 °F 31.1 °F 30.34 in SE 1.1 mph 3 mph 97% 0.00 in 0 W/m2
06:24 31.8 °F 31.1 °F 30.33 in SE 1.1 mph 3 mph 97% 0.00 in 0 W/m2
06:29 31.9 °F 31.2 °F 30.33 in SE 1.2 mph 2 mph 97% 0.00 in 0 W/m2
06:34 32 °F 31.3 °F 30.34 in SE 1.1 mph 2 mph 97% 0.00 in 0 W/m2
06:39 32.1 °F 31.4 °F 30.33 in ESE 1.8 mph 4 mph 97% 0.00 in 0 W/m2
06:44 32.2 °F 31.5 °F 30.33 in ESE 1.3 mph 4 mph 97% 0.00 in 0 W/m2
06:49 32.2 °F 31.5 °F 30.33 in ESE 0.4 mph 3 mph 97% 0.00 in 0 W/m2
06:54 32.5 °F 31.8 °F 30.33 in ESE 0.4 mph 2 mph 97% 0.00 in 0 W/m2
06:59 34.7 °F 34 °F 30.33 in ESE 0.4 mph 1 mph 97% 0.00 in 0 W/m2
07:04 36.7 °F 36 °F 30.34 in ESE 1.4 mph 4 mph 97% 0.00 in 0 W/m2
07:09 37.1 °F 36.4 °F 30.34 in ESE 0.5 mph 4 mph 97% 0.00 in 0 W/m2
07:14 37.1 °F 36.4 °F 30.34 in ESE 1.6 mph 4 mph 97% 0.00 in 0 W/m2
07:19 35.1 °F 34.4 °F 30.34 in ESE 0.5 mph 2 mph 97% 0.00 in 0 W/m2
07:24 34.1 °F 33.3 °F 30.34 in ESE 1.1 mph 2 mph 97% 0.00 in 0 W/m2
07:29 33.5 °F 32.8 °F 30.34 in ESE 1.1 mph 2 mph 97% 0.00 in 0 W/m2
07:34 33.1 °F 32.3 °F 30.34 in ESE 1.6 mph 3 mph 97% 0.00 in 0 W/m2
07:39 32.7 °F 32 °F 30.34 in ESE 1.1 mph 3 mph 97% 0.00 in 0 W/m2
07:44 32.5 °F 31.8 °F 30.34 in ESE 0.2 mph 2 mph 97% 0.00 in 0 W/m2
07:49 32.5 °F 31.8 °F 30.34 in ESE 0.4 mph 2 mph 97% 0.00 in 0 W/m2
07:54 32.4 °F 31.7 °F 30.34 in ESE 1.4 mph 3 mph 97% 0.00 in 0 W/m2
07:59 32.4 °F 31.6 °F 30.34 in ESE 1.7 mph 3 mph 97% 0.00 in 0 W/m2
08:04 32.4 °F 31.6 °F 30.34 in ESE 0.9 mph 3 mph 97% 0.00 in 0 W/m2
08:09 32.4 °F 31.6 °F 30.34 in ESE 1.8 mph 3 mph 97% 0.00 in 5 W/m2
08:14 32.4 °F 31.6 °F 30.34 in ESE 1.6 mph 3 mph 97% 0.00 in 5 W/m2
08:19 32.3 °F 31.6 °F 30.34 in ESE 0.8 mph 3 mph 97% 0.00 in 7 W/m2
08:24 32.2 °F 31.5 °F 30.34 in ESE 0.2 mph 2 mph 97% 0.00 in 9 W/m2
08:29 32.2 °F 31.5 °F 30.35 in East 1 mph 4 mph 97% 0.00 in 12 W/m2
08:34 32.2 °F 31.5 °F 30.35 in East 0.8 mph 2 mph 97% 0.00 in 14 W/m2
08:39 32.2 °F 31.5 °F 30.35 in East 0.5 mph 1 mph 97% 0.00 in 19 W/m2
08:44 32.4 °F 31.6 °F 30.35 in East 1.6 mph 3 mph 97% 0.00 in 19 W/m2
08:49 32.4 °F 31.6 °F 30.35 in East 1.2 mph 3 mph 97% 0.00 in 18 W/m2
08:54 32.4 °F 31.6 °F 30.35 in East 0.7 mph 2 mph 97% 0.00 in 18 W/m2
08:59 32.4 °F 31.6 °F 30.35 in Calm   1 mph 97% 0.00 in 25 W/m2
09:04 32.5 °F 31.8 °F 30.34 in East 0.5 mph 2 mph 97% 0.00 in 28 W/m2
09:09 32.5 °F 31.8 °F 30.34 in East 0.2 mph 1 mph 97% 0.00 in 30 W/m2
09:14 32.7 °F 32 °F 30.34 in Calm   1 mph 97% 0.00 in 33 W/m2
09:19 32.7 °F 32 °F 30.35 in Calm   2 mph 97% 0.00 in 33 W/m2
09:24 32.5 °F 31.7 °F 30.35 in East 0.2 mph 2 mph 97% 0.00 in 32 W/m2
09:29 32.4 °F 31.6 °F 30.35 in East 0.4 mph 1 mph 97% 0.00 in 37 W/m2
09:34 32.5 °F 31.8 °F 30.35 in East 0.2 mph 1 mph 97% 0.00 in 42 W/m2
09:39 32.9 °F 32.2 °F 30.35 in East 0.2 mph 1 mph 97% 0.00 in 44 W/m2
09:44 33.2 °F 32.5 °F 30.35 in Calm     97% 0.00 in 49 W/m2
09:49 33.3 °F 32.5 °F 30.35 in Calm     97% 0.00 in 49 W/m2
09:54 33.1 °F 32.4 °F 30.35 in Calm     97% 0.00 in 47 W/m2
09:59 33.3 °F 32.5 °F 30.35 in Calm     97% 0.00 in 51 W/m2
10:04 33.2 °F 32.4 °F 30.35 in East 0.8 mph 3 mph 97% 0.00 in 62 W/m2
10:09 33.3 °F 32.6 °F 30.35 in East 0.7 mph 2 mph 97% 0.00 in 63 W/m2
10:14 33.4 °F 32.7 °F 30.35 in East 0.9 mph 3 mph 97% 0.00 in 65 W/m2
10:19 33.4 °F 32.7 °F 30.35 in East 1.1 mph 3 mph 97% 0.00 in 63 W/m2
10:24 33.3 °F 32.5 °F 30.35 in East 0.2 mph 2 mph 97% 0.00 in 56 W/m2
10:29 33.3 °F 32.5 °F 30.35 in East 0.2 mph 1 mph 97% 0.00 in 65 W/m2
10:34 33.3 °F 32.6 °F 30.35 in East 0.5 mph 2 mph 97% 0.00 in 83 W/m2
10:39 33.4 °F 32.7 °F 30.35 in East 0.2 mph 2 mph 97% 0.00 in 83 W/m2
10:44 33.6 °F 32.9 °F 30.35 in East 0.2 mph 1 mph 97% 0.00 in 88 W/m2
10:49 33.8 °F 33.1 °F 30.34 in East 0.9 mph 2 mph 97% 0.00 in 86 W/m2
10:54 33.9 °F 33.2 °F 30.34 in East 0.8 mph 2 mph 97% 0.00 in 95 W/m2
10:59 34 °F 33.3 °F 30.34 in East 0.4 mph 2 mph 97% 0.00 in 109 W/m2
11:04 34 °F 33.3 °F 30.34 in East 0.4 mph 2 mph 97% 0.00 in 109 W/m2
11:09 34.3 °F 33.5 °F 30.34 in East 1.6 mph 3 mph 97% 0.00 in 118 W/m2
11:14 34.5 °F 33.8 °F 30.34 in East 1.9 mph 3 mph 97% 0.00 in 120 W/m2
11:19 34.8 °F 34.1 °F 30.34 in East 1.7 mph 5 mph 97% 0.00 in 120 W/m2
11:24 35 °F 34.3 °F 30.34 in East 1.3 mph 5 mph 97% 0.00 in 123 W/m2
11:29 35.1 °F 34.3 °F 30.34 in East 2.2 mph 4 mph 97% 0.00 in 120 W/m2
11:33 35.3 °F 34.6 °F 30.34 in ESE 1.5 mph 3 mph 97% 0.00 in 118 W/m2
11:39 35.5 °F 34.8 °F 30.34 in ESE 0.4 mph 2 mph 97% 0.00 in 111 W/m2
11:44 35.6 °F 34.9 °F 30.34 in ESE 1.2 mph 4 mph 97% 0.00 in 113 W/m2
11:49 35.3 °F 34.6 °F 30.34 in ESE 1.3 mph 4 mph 97% 0.00 in 109 W/m2
11:54 35.2 °F 34.5 °F 30.34 in ESE 0.4 mph 3 mph 97% 0.00 in 104 W/m2
11:59 35.4 °F 34.7 °F 30.33 in ESE 1.8 mph 3 mph 97% 0.00 in 105 W/m2
12:04 35.4 °F 34.7 °F 30.33 in ESE 1.6 mph 3 mph 97% 0.00 in 105 W/m2
12:09 35.5 °F 34.8 °F 30.33 in ESE 0.7 mph 2 mph 97% 0.00 in 97 W/m2
12:14 35.8 °F 35.1 °F 30.33 in ESE 0.5 mph 2 mph 97% 0.00 in 100 W/m2
12:19 36 °F 35.2 °F 30.33 in ESE 0.2 mph 2 mph 97% 0.00 in 100 W/m2
12:24 36 °F 35.2 °F 30.32 in ESE 0.5 mph 2 mph 97% 0.00 in 88 W/m2
12:29 36.1 °F 35.4 °F 30.32 in ESE 1.2 mph 2 mph 97% 0.00 in 97 W/m2
12:34 36.2 °F 35.5 °F 30.32 in ESE 0.2 mph 2 mph 97% 0.00 in 116 W/m2
12:39 36.6 °F 35.9 °F 30.32 in ESE 1.1 mph 2 mph 97% 0.00 in 118 W/m2
12:44 36.7 °F 36 °F 30.32 in ESE 0.7 mph 2 mph 97% 0.00 in 123 W/m2
12:49 36.9 °F 36.1 °F 30.32 in ESE 1.4 mph 3 mph 97% 0.00 in 123 W/m2
12:54 37.1 °F 36.4 °F 30.32 in ESE 0.4 mph 2 mph 97% 0.00 in 95 W/m2
12:59 37.3 °F 36.6 °F 30.32 in ESE 0.4 mph 2 mph 97% 0.00 in 74 W/m2
13:04 37.6 °F 36.9 °F 30.32 in Calm     97% 0.00 in 77 W/m2
13:09 37.8 °F 37 °F 30.31 in ESE 0.2 mph 2 mph 97% 0.00 in 144 W/m2
13:14 37.9 °F 37.2 °F 30.31 in Calm   1 mph 97% 0.00 in 199 W/m2
13:19 38.1 °F 37.4 °F 30.31 in ESE 0.4 mph 1 mph 97% 0.00 in 148 W/m2
13:24 38.5 °F 37.8 °F 30.31 in ESE 0.7 mph 3 mph 97% 0.00 in 120 W/m2
13:29 38.5 °F 37.8 °F 30.31 in ESE 1.2 mph 4 mph 97% 0.00 in 84 W/m2
13:34 38.9 °F 38.1 °F 30.31 in ESE 0.8 mph 3 mph 97% 0.00 in 76 W/m2
13:39 39.3 °F 38.6 °F 30.31 in ESE 2.2 mph 4 mph 97% 0.00 in 88 W/m2
13:44 39.4 °F 38.7 °F 30.31 in ESE 1.6 mph 4 mph 97% 0.00 in 114 W/m2
13:49 39.6 °F 38.9 °F 30.31 in ENE 2.4 mph 7 mph 97% 0.00 in 90 W/m2
13:54 39.7 °F 39 °F 30.30 in NE 1.4 mph 7 mph 97% 0.00 in 95 W/m2
13:59 39.9 °F 39.2 °F 30.30 in NE 1.3 mph 3 mph 97% 0.00 in 86 W/m2
14:04 40.1 °F 39.4 °F 30.30 in NE 0.7 mph 3 mph 97% 0.00 in 81 W/m2
14:09 40.1 °F 39.4 °F 30.30 in NNE 2.3 mph 5 mph 97% 0.00 in 79 W/m2
14:14 40.1 °F 39.4 °F 30.30 in North 1.2 mph 5 mph 97% 0.00 in 65 W/m2
14:19 40.2 °F 39.5 °F 30.30 in North 1 mph 3 mph 97% 0.00 in 56 W/m2
14:24 40.3 °F 39.6 °F 30.30 in North 1.2 mph 3 mph 97% 0.00 in 44 W/m2
14:29 40.3 °F 39.6 °F 30.30 in NNE 2.3 mph 6 mph 97% 0.00 in 65 W/m2
14:34 40.3 °F 39.6 °F 30.30 in ENE 3.6 mph 8 mph 97% 0.00 in 49 W/m2
14:39 40.3 °F 39.6 °F 30.30 in NE 4.3 mph 10 mph 97% 0.00 in 33 W/m2
14:44 40.3 °F 39.6 °F 30.30 in NE 4 mph 9 mph 97% 0.00 in 40 W/m2
14:48 40.5 °F 39.7 °F 30.30 in NNE 2.7 mph 8 mph 97% 0.00 in 46 W/m2
14:54 40.5 °F 39.7 °F 30.30 in NNE 2.2 mph 6 mph 97% 0.00 in 42 W/m2
14:59 40.5 °F 39.8 °F 30.30 in NNE 2.9 mph 5 mph 97% 0.00 in 44 W/m2
15:04 40.6 °F 39.9 °F 30.30 in NE 2 mph 5 mph 97% 0.00 in 39 W/m2
15:09 40.7 °F 40 °F 30.30 in NE 1.7 mph 3 mph 97% 0.00 in 42 W/m2
15:14 40.8 °F 40.1 °F 30.30 in NE 0.5 mph 3 mph 97% 0.00 in 32 W/m2
15:19 40.8 °F 40.1 °F 30.30 in NE 0.2 mph 3 mph 97% 0.00 in 30 W/m2
15:24 40.8 °F 40.1 °F 30.30 in NE 0.5 mph 2 mph 97% 0.00 in 16 W/m2
15:29 40.9 °F 40.2 °F 30.30 in NE 1.3 mph 4 mph 97% 0.00 in 11 W/m2
15:34 41 °F 40.3 °F 30.30 in NE 1.3 mph 4 mph 97% 0.00 in 9 W/m2
15:39 41 °F 40.3 °F 30.30 in NE 1.8 mph 4 mph 97% 0.00 in 7 W/m2
15:44 41 °F 40.3 °F 30.30 in NNE 3.3 mph 7 mph 97% 0.00 in 7 W/m2
15:49 41 °F 40.3 °F 30.30 in North 4.6 mph 8 mph 97% 0.00 in 5 W/m2
15:54 41.2 °F 40.3 °F 30.30 in NNE 3.4 mph 6 mph 96.6% 0.00 in 0 W/m2
15:58 41.2 °F 40.1 °F 30.30 in North 3.2 mph 9 mph 96% 0.00 in 0 W/m2
16:04 41.4 °F 40.3 °F 30.30 in NE 3.4 mph 7 mph 96% 0.00 in 0 W/m2
16:09 41.4 °F 40.3 °F 30.30 in NNE 1.7 mph 8 mph 96% 0.00 in 0 W/m2
16:14 41.4 °F 40.3 °F 30.30 in NNE 2.3 mph 5 mph 96% 0.00 in 0 W/m2
16:19 41.5 °F 40.4 °F 30.30 in NNE 2.4 mph 5 mph 96% 0.00 in 0 W/m2
16:24 41.5 °F 40.5 °F 30.30 in ENE 3.3 mph 8 mph 96% 0.00 in 0 W/m2
16:29 41.5 °F 40.5 °F 30.30 in East 0.5 mph 5 mph 96% 0.00 in 0 W/m2
16:34 41.5 °F 40.5 °F 30.30 in NNW 1.7 mph 5 mph 96% 0.00 in 0 W/m2
16:39 41.4 °F 40.4 °F 30.30 in NNW 0.9 mph 4 mph 96% 0.00 in 0 W/m2
16:44 41.4 °F 40.3 °F 30.30 in NNW 2.1 mph 4 mph 96% 0.00 in 0 W/m2
16:49 41.4 °F 40.3 °F 30.30 in NNW 0.8 mph 3 mph 96% 0.00 in 0 W/m2
16:54 41.4 °F 40.3 °F 30.30 in North 2.1 mph 7 mph 96% 0.00 in 0 W/m2
16:59 41.2 °F 40.1 °F 30.30 in NNW 1.3 mph 4 mph 96% 0.00 in 0 W/m2
17:04 41.2 °F 40.1 °F 30.31 in NNE 2.3 mph 5 mph 96% 0.00 in 0 W/m2
17:09 41.3 °F 40.2 °F 30.31 in NNE 1.7 mph 5 mph 96% 0.00 in 0 W/m2
17:14 41.3 °F 40.2 °F 30.31 in NE 1.8 mph 6 mph 96% 0.00 in 0 W/m2
17:19 41.2 °F 40.1 °F 30.31 in North 2.4 mph 6 mph 96% 0.00 in 0 W/m2
17:24 41.3 °F 40.2 °F 30.31 in NNE 1.7 mph 4 mph 96% 0.00 in 0 W/m2
17:29 41.2 °F 40.1 °F 30.31 in NNE 1.8 mph 4 mph 96% 0.00 in 0 W/m2
17:34 41.2 °F 40.1 °F 30.31 in NE 1.6 mph 7 mph 96% 0.00 in 0 W/m2
17:39 41.1 °F 40 °F 30.30 in NNE 2 mph 7 mph 96% 0.00 in 0 W/m2
17:44 40.9 °F 39.7 °F 30.31 in NE 2.9 mph 8 mph 95.2% 0.00 in 0 W/m2
17:49 40.8 °F 39.6 °F 30.30 in NNE 3.3 mph 7 mph 95% 0.00 in 0 W/m2
17:54 40.8 °F 39.6 °F 30.31 in NE 4 mph 8 mph 95% 0.00 in 0 W/m2
17:59 40.8 °F 39.6 °F 30.31 in NNE 4.2 mph 9 mph 95% 0.00 in 0 W/m2
18:04 40.8 °F 39.6 °F 30.31 in NNE 3.6 mph 8 mph 95% 0.00 in 0 W/m2
18:09 40.9 °F 39.7 °F 30.31 in NNE 3.6 mph 9 mph 95% 0.00 in 0 W/m2
18:14 41 °F 39.7 °F 30.31 in NNE 1.2 mph 4 mph 95% 0.00 in 0 W/m2
18:19 41 °F 39.7 °F 30.31 in NE 4.9 mph 9 mph 95% 0.00 in 0 W/m2
18:24 41 °F 39.7 °F 30.31 in NE 4.2 mph 9 mph 95% 0.00 in 0 W/m2
18:29 41 °F 39.7 °F 30.31 in NE 2.1 mph 5 mph 95% 0.00 in 0 W/m2
18:34 40.8 °F 39.6 °F 30.31 in North 1.3 mph 5 mph 95% 0.00 in 0 W/m2
18:38 41 °F 39.7 °F 30.31 in NNE 4 mph 6 mph 95% 0.00 in 0 W/m2
18:44 41 °F 39.7 °F 30.31 in NNE 3.5 mph 8 mph 95% 0.00 in 0 W/m2
18:49 41.2 °F 39.9 °F 30.31 in NNE 2.4 mph 8 mph 95% 0.00 in 0 W/m2
18:54 41.3 °F 40 °F 30.30 in NNE 3.7 mph 11 mph 95% 0.00 in 0 W/m2
18:59 41.4 °F 40.1 °F 30.30 in North 2.8 mph 9 mph 95% 0.00 in 0 W/m2
19:04 41.4 °F 40.1 °F 30.30 in NNE 5.1 mph 9 mph 95% 0.00 in 0 W/m2
19:09 41.2 °F 39.7 °F 30.30 in NNE 2.5 mph 9 mph 94.2% 0.00 in 0 W/m2
19:14 41.2 °F 39.6 °F 30.30 in NNE 4.9 mph 13 mph 94% 0.00 in 0 W/m2
19:19 41.2 °F 39.7 °F 30.30 in NNE 5 mph 11 mph 94.4% 0.00 in 0 W/m2
19:24 41.2 °F 39.7 °F 30.30 in ENE 3.3 mph 7 mph 94.4% 0.00 in 0 W/m2
19:29 41.2 °F 39.6 °F 30.30 in NE 6.1 mph 9 mph 94% 0.00 in 0 W/m2
19:34 41.2 °F 39.6 °F 30.30 in NNE 3.6 mph 8 mph 94% 0.00 in 0 W/m2
19:39 41.2 °F 39.6 °F 30.30 in NE 5 mph 10 mph 94% 0.00 in 0 W/m2
19:44 41.1 °F 39.5 °F 30.30 in NE 4.5 mph 12 mph 94% 0.00 in 0 W/m2
19:49 41.1 °F 39.5 °F 30.30 in North 3.4 mph 7 mph 94% 0.00 in 0 W/m2
19:54 41 °F 39.4 °F 30.30 in NE 4.6 mph 8 mph 94% 0.00 in 0 W/m2
19:59 41 °F 39.4 °F 30.30 in NNE 5.8 mph 10 mph 94% 0.00 in 0 W/m2
20:04 41 °F 39.4 °F 30.30 in NNE 5 mph 13 mph 94% 0.00 in 0 W/m2
20:09 40.8 °F 39.2 °F 30.30 in NNE 5.4 mph 8 mph 94% 0.00 in 0 W/m2
20:14 40.8 °F 39.2 °F 30.30 in NE 3.6 mph 9 mph 94% 0.00 in 0 W/m2
20:19 40.8 °F 39.2 °F 30.30 in NE 4.5 mph 10 mph 94% 0.00 in 0 W/m2
20:24 40.8 °F 39.2 °F 30.30 in NNE 4.1 mph 9 mph 94% 0.00 in 0 W/m2
20:29 40.8 °F 39.2 °F 30.30 in NNE 4.5 mph 9 mph 94% 0.00 in 0 W/m2
20:34 40.9 °F 39.3 °F 30.30 in NNE 2.2 mph 6 mph 94% 0.00 in 0 W/m2
20:39 40.8 °F 39.1 °F 30.30 in NE 3.1 mph 9 mph 93.6% 0.00 in 0 W/m2
20:44 40.8 °F 39 °F 30.30 in NNE 3.6 mph 10 mph 93% 0.00 in 0 W/m2
20:49 40.7 °F 38.9 °F 30.30 in NNE 2.9 mph 7 mph 93% 0.00 in 0 W/m2
20:54 40.6 °F 38.8 °F 30.30 in North 4.1 mph 9 mph 93% 0.00 in 0 W/m2
20:59 40.6 °F 38.8 °F 30.30 in NNE 3.7 mph 9 mph 93% 0.00 in 0 W/m2
21:04 40.5 °F 38.7 °F 30.30 in NE 5.6 mph 12 mph 93% 0.00 in 0 W/m2
21:09 40.5 °F 38.7 °F 30.30 in NNE 3.6 mph 10 mph 93% 0.00 in 0 W/m2
21:14 40.6 °F 38.8 °F 30.30 in NE 4.4 mph 13 mph 93% 0.00 in 0 W/m2
21:19 40.5 °F 38.7 °F 30.30 in NE 2.5 mph 7 mph 93% 0.00 in 0 W/m2
21:23 40.5 °F 38.7 °F 30.30 in NE 1.7 mph 7 mph 93% 0.00 in 0 W/m2
21:29 40.5 °F 38.7 °F 30.30 in ENE 2.9 mph 9 mph 93% 0.00 in 0 W/m2
21:34 40.5 °F 38.7 °F 30.30 in NE 2.7 mph 8 mph 93% 0.00 in 0 W/m2
21:39 40.3 °F 38.5 °F 30.30 in ENE 2.1 mph 8 mph 93% 0.00 in 0 W/m2
21:44 40.3 °F 38.5 °F 30.30 in ENE 1.7 mph 7 mph 93% 0.00 in 0 W/m2
21:49 40.1 °F 38.3 °F 30.30 in NNE 2.4 mph 6 mph 93% 0.00 in 0 W/m2
21:54 39.9 °F 38.1 °F 30.30 in NNE 1.6 mph 4 mph 93% 0.00 in 0 W/m2
21:59 39.9 °F 38.1 °F 30.30 in NNE 0.9 mph 3 mph 93% 0.00 in 0 W/m2
22:04 39.7 °F 37.9 °F 30.30 in NNE 0.4 mph 2 mph 93% 0.00 in 0 W/m2
22:09 39.6 °F 37.7 °F 30.29 in NNE 1 mph 3 mph 92.6% 0.00 in 0 W/m2
22:14 39.5 °F 37.3 °F 30.30 in NNE 0.9 mph 2 mph 92% 0.00 in 0 W/m2
22:19 39.4 °F 37.2 °F 30.30 in NNE 1.2 mph 4 mph 92% 0.00 in 0 W/m2
22:24 39.3 °F 37.1 °F 30.30 in NNE 0.2 mph 2 mph 92% 0.00 in 0 W/m2
22:29 39 °F 36.9 °F 30.29 in WSW 0.5 mph 4 mph 92% 0.00 in 0 W/m2
22:34 39 °F 36.9 °F 30.29 in WSW 1.2 mph 2 mph 92% 0.00 in 0 W/m2
22:39 39 °F 36.9 °F 30.29 in WSW 0.9 mph 3 mph 92% 0.00 in 0 W/m2
22:44 38.8 °F 36.7 °F 30.30 in NW 2.6 mph 4 mph 92% 0.00 in 0 W/m2
22:49 38.8 °F 36.7 °F 30.30 in NNE 0.8 mph 4 mph 92% 0.00 in 0 W/m2
22:54 38.9 °F 36.8 °F 30.30 in NNE 3.2 mph 6 mph 92% 0.00 in 0 W/m2
22:59 39 °F 36.9 °F 30.30 in NE 2.7 mph 7 mph 92% 0.00 in 0 W/m2
23:04 39.3 °F 37.2 °F 30.30 in NE 1 mph 7 mph 92% 0.00 in 0 W/m2
23:09 39.6 °F 37.6 °F 30.29 in NE 2.2 mph 9 mph 92.6% 0.00 in 0 W/m2
23:14 39.7 °F 37.8 °F 30.29 in NE 2.9 mph 9 mph 92.6% 0.00 in 0 W/m2
23:19 39.9 °F 37.8 °F 30.29 in NE 3.3 mph 7 mph 92% 0.00 in 0 W/m2
23:24 40.2 °F 38 °F 30.29 in North 4.4 mph 9 mph 92% 0.00 in 0 W/m2
23:29 40.3 °F 38.1 °F 30.29 in ENE 2.8 mph 5 mph 92% 0.00 in 0 W/m2
23:34 40.4 °F 38.2 °F 30.29 in North 3.8 mph 7 mph 92% 0.00 in 0 W/m2
23:39 40.5 °F 38.3 °F 30.29 in NE 3 mph 9 mph 92% 0.00 in 0 W/m2
23:44 40.5 °F 38.3 °F 30.29 in NNE 2.4 mph 6 mph 92% 0.00 in 0 W/m2
23:49 40.5 °F 38.3 °F 30.29 in NE 1.9 mph 8 mph 92% 0.00 in 0 W/m2
23:54 40.5 °F 38.3 °F 30.29 in NNE 2.2 mph 4 mph 92% 0.00 in 0 W/m2
23:59 40.5 °F 38.3 °F 30.29 in North 3 mph 7 mph 91.8% 0.00 in 0 W/m2
Bath Spa Weather
Compliments of Weather Underground - 2 mb